createdAt,value
2018-07-31T09:56:22.467Z,61.44
2018-07-31T09:58:53.182Z,63.60
2018-07-31T10:01:20.390Z,66.50
2018-07-31T10:03:48.309Z,66.83
2018-07-31T10:06:15.632Z,65.40
2018-07-31T10:08:42.818Z,63.75
2018-07-31T10:11:10.032Z,64.51
2018-07-31T10:13:37.240Z,61.68
2018-07-31T10:16:04.423Z,58.60
2018-07-31T10:18:31.683Z,60.99
2018-07-31T10:20:58.892Z,60.50
2018-07-31T10:23:26.106Z,59.20
2018-07-31T10:25:53.325Z,58.55
2018-07-31T10:28:20.496Z,58.63
2018-07-31T10:30:47.697Z,58.13
2018-07-31T10:33:14.960Z,57.53
2018-07-31T10:35:42.163Z,58.27
2018-07-31T10:38:09.389Z,57.25
2018-07-31T10:40:36.668Z,56.27
2018-07-31T10:43:03.868Z,56.17
2018-07-31T10:45:31.075Z,57.18
2018-07-31T10:47:58.323Z,54.78
2018-07-31T10:50:25.526Z,53.96
2018-07-31T10:52:53.263Z,53.87
2018-07-31T10:55:20.480Z,53.75
2018-07-31T10:57:48.096Z,51.82
2018-07-31T11:00:15.302Z,53.73
2018-07-31T11:02:44.687Z,54.02
2018-07-31T11:05:11.869Z,54.45
2018-07-31T11:07:39.060Z,52.69
2018-07-31T11:10:06.731Z,51.78
2018-07-31T11:12:33.987Z,47.18
2018-07-31T11:15:01.168Z,47.85
2018-07-31T11:17:28.416Z,49.92
2018-07-31T11:19:55.650Z,50.87
2018-07-31T11:22:22.839Z,50.60
2018-07-31T11:24:50.423Z,50.87
2018-07-31T11:27:17.603Z,52.99
2018-07-31T11:29:44.804Z,52.94
2018-07-31T11:32:12.011Z,52.15
2018-07-31T11:34:39.194Z,50.11
2018-07-31T11:37:06.416Z,50.89
2018-07-31T11:39:33.627Z,50.42
2018-07-31T11:42:00.800Z,49.69
2018-07-31T11:44:27.989Z,49.59
2018-07-31T11:46:55.275Z,51.23
2018-07-31T11:49:22.523Z,54.51
2018-07-31T11:51:49.712Z,54.42
2018-07-31T11:54:16.940Z,55.01
2018-07-31T11:56:45.184Z,55.65
2018-07-31T11:59:12.443Z,55.74
2018-07-31T12:01:39.682Z,56.17
2018-07-31T12:04:06.931Z,55.49
2018-07-31T12:06:34.171Z,55.69
2018-07-31T12:09:01.440Z,54.38
2018-07-31T12:11:28.615Z,54.92
2018-07-31T12:13:55.785Z,53.54
2018-07-31T12:16:23.054Z,55.33
2018-07-31T12:18:50.571Z,56.85
2018-07-31T12:21:17.741Z,59.78
2018-07-31T12:23:44.967Z,62.43
2018-07-31T12:26:12.148Z,60.53
2018-07-31T12:28:39.352Z,63.27
2018-07-31T12:31:06.636Z,65.74
2018-07-31T12:33:33.827Z,67.93
2018-07-31T12:36:01.010Z,67.26
2018-07-31T12:38:32.188Z,66.18
2018-07-31T12:40:59.376Z,69.04
2018-07-31T12:43:26.548Z,67.17
2018-07-31T12:45:53.773Z,63.13
2018-07-31T12:48:20.936Z,62.05
2018-07-31T12:50:48.112Z,63.38
2018-07-31T12:53:15.474Z,67.13
2018-07-31T12:55:42.643Z,67.66
2018-07-31T12:58:09.841Z,65.78
2018-07-31T13:00:37.553Z,65.80
2018-07-31T13:03:04.916Z,63.18
2018-07-31T13:05:32.107Z,62.52
2018-07-31T13:07:59.307Z,61.70
2018-07-31T13:10:26.473Z,58.15
2018-07-31T13:12:53.660Z,60.28
2018-07-31T13:15:20.921Z,61.71
2018-07-31T13:17:48.111Z,61.10
2018-07-31T13:20:15.276Z,58.77
2018-07-31T13:22:42.487Z,60.30
2018-07-31T13:25:09.683Z,60.58
2018-07-31T13:27:36.946Z,59.16
2018-07-31T13:30:04.745Z,59.47
2018-07-31T13:32:31.916Z,59.33
2018-07-31T13:34:59.102Z,59.26
2018-07-31T13:37:26.363Z,58.61
2018-07-31T13:39:53.543Z,58.83
2018-07-31T13:42:20.732Z,62.19
2018-07-31T13:44:47.974Z,61.35
2018-07-31T13:47:15.496Z,62.26
2018-07-31T13:49:42.667Z,62.09
2018-07-31T13:52:09.873Z,62.85
2018-07-31T13:54:37.103Z,61.63
2018-07-31T13:57:04.288Z,63.55
2018-07-31T13:59:31.629Z,64.14
2018-07-31T14:01:59.095Z,64.06
2018-07-31T14:04:26.296Z,63.88
2018-07-31T14:06:53.524Z,63.43
2018-07-31T14:09:20.749Z,64.05
2018-07-31T14:11:47.973Z,65.69
2018-07-31T14:14:15.164Z,65.91
2018-07-31T14:16:42.339Z,66.71
2018-07-31T14:19:09.536Z,69.54
2018-07-31T14:21:36.901Z,73.42
2018-07-31T14:24:04.093Z,73.27
2018-07-31T14:26:31.275Z,74.00
2018-07-31T14:28:58.508Z,76.57
2018-07-31T14:31:25.704Z,77.31
2018-07-31T14:33:52.884Z,75.88
2018-07-31T14:36:20.132Z,76.24
2018-07-31T14:38:47.327Z,76.21
2018-07-31T14:41:14.945Z,75.54
2018-07-31T14:43:42.444Z,76.29
2018-07-31T14:46:09.736Z,74.86
2018-07-31T14:48:36.921Z,75.85
2018-07-31T14:51:04.159Z,75.69
2018-07-31T14:53:31.340Z,76.52
2018-07-31T14:55:58.524Z,76.25
2018-07-31T14:58:25.856Z,76.47
2018-07-31T15:00:53.049Z,74.55
2018-07-31T15:03:20.299Z,75.39
2018-07-31T15:05:47.780Z,76.55
2018-07-31T15:08:14.973Z,78.02
2018-07-31T15:10:42.199Z,77.48
2018-07-31T15:13:09.419Z,76.28
2018-07-31T15:15:36.588Z,77.85
2018-07-31T15:18:03.780Z,78.59
2018-07-31T15:20:31.004Z,80.09
2018-07-31T15:22:58.196Z,81.25
2018-07-31T15:25:25.388Z,83.65
2018-07-31T15:27:52.880Z,86.20
2018-07-31T15:30:20.742Z,86.70
2018-07-31T15:32:47.929Z,85.53
2018-07-31T15:35:15.247Z,85.38
2018-07-31T15:37:42.548Z,85.29
2018-07-31T15:40:12.776Z,85.90
2018-07-31T15:42:43.152Z,87.01
2018-07-31T15:45:10.320Z,86.07
2018-07-31T15:48:09.705Z,87.80
2018-07-31T15:51:36.072Z,89.02
2018-07-31T15:56:38.725Z,88.90
2018-07-31T15:59:08.340Z,88.92
2018-07-31T16:01:37.993Z,89.39
2018-07-31T16:04:07.820Z,88.90
2018-07-31T16:06:37.884Z,89.25
2018-07-31T16:09:08.653Z,89.28
2018-07-31T16:11:38.367Z,89.57
2018-07-31T16:14:08.569Z,88.79
2018-07-31T16:16:38.507Z,88.18
2018-07-31T16:19:08.153Z,88.85
2018-07-31T16:21:37.776Z,87.21
2018-07-31T16:25:31.810Z,88.17
2018-07-31T16:28:01.433Z,88.39
2018-07-31T16:30:31.063Z,88.96
2018-07-31T16:33:00.750Z,89.17
2018-07-31T16:35:30.396Z,88.31
2018-07-31T16:38:00.066Z,87.79
2018-07-31T16:40:29.749Z,87.47
2018-07-31T16:42:59.387Z,88.25
2018-07-31T16:45:29.041Z,87.99
2018-07-31T16:47:58.777Z,88.24
2018-07-31T16:50:28.408Z,88.73
2018-07-31T16:52:58.040Z,90.26
2018-07-31T16:55:27.727Z,89.55
2018-07-31T16:57:57.348Z,90.02
2018-07-31T17:00:26.984Z,90.44
2018-07-31T17:02:56.661Z,90.15
2018-07-31T17:05:26.411Z,89.98
2018-07-31T17:07:56.046Z,89.77
2018-07-31T17:10:25.774Z,91.12
2018-07-31T17:12:55.425Z,91.40
2018-07-31T17:15:25.070Z,90.96
2018-07-31T17:17:54.728Z,90.57
2018-07-31T17:20:24.360Z,90.85
2018-07-31T17:22:53.981Z,88.83
2018-07-31T17:25:23.658Z,88.29
2018-07-31T17:27:53.303Z,87.11
2018-07-31T17:30:22.932Z,87.72
2018-07-31T17:32:52.656Z,88.74
2018-07-31T17:35:22.334Z,89.52
2018-07-31T17:37:52.732Z,90.63
2018-07-31T17:40:22.951Z,90.91
2018-07-31T17:42:52.572Z,92.77
2018-07-31T17:45:22.204Z,93.23
2018-07-31T17:47:51.882Z,92.78
2018-07-31T17:50:21.526Z,93.85
2018-07-31T17:52:51.562Z,95.35
2018-07-31T17:55:21.838Z,95.62
2018-07-31T17:57:51.657Z,96.60
2018-07-31T18:00:21.301Z,95.29
2018-07-31T18:02:50.976Z,95.21
2018-07-31T18:05:20.737Z,95.27
2018-07-31T18:07:50.814Z,92.10
2018-07-31T18:10:21.311Z,92.36
2018-07-31T18:12:51.168Z,93.12
2018-07-31T18:15:20.924Z,92.36
2018-07-31T18:17:51.148Z,93.03
2018-07-31T18:20:20.864Z,92.64
2018-07-31T18:22:50.480Z,93.22
2018-07-31T18:25:20.152Z,96.49
2018-07-31T18:27:49.798Z,98.65
2018-07-31T18:30:19.426Z,98.54
2018-07-31T18:32:49.314Z,99.93
2018-07-31T18:35:18.942Z,99.99
2018-07-31T18:37:48.618Z,100.00
2018-07-31T18:40:18.780Z,100.00
2018-07-31T18:42:48.422Z,100.00
2018-07-31T18:45:18.055Z,100.00
2018-07-31T18:47:47.737Z,99.52
2018-07-31T18:50:17.784Z,98.19
2018-07-31T18:52:47.525Z,97.58
2018-07-31T18:55:17.225Z,96.73
2018-07-31T18:57:46.867Z,96.64
2018-07-31T19:00:16.677Z,96.19
2018-07-31T19:02:46.403Z,94.80
2018-07-31T19:05:16.114Z,95.29
2018-07-31T19:07:45.860Z,94.30
2018-07-31T19:10:17.686Z,94.09
2018-07-31T19:12:47.320Z,95.80
2018-07-31T19:15:16.957Z,94.99
2018-07-31T19:17:46.766Z,93.52
2018-07-31T19:20:16.417Z,94.05
2018-07-31T19:22:46.060Z,91.31
2018-07-31T19:25:15.776Z,90.31
2018-07-31T19:27:45.968Z,92.52
2018-07-31T19:30:15.920Z,92.26
2018-07-31T19:32:45.723Z,92.37
2018-07-31T19:35:15.356Z,93.54
2018-07-31T19:37:45.041Z,93.97
2018-07-31T19:40:14.734Z,93.68
2018-07-31T19:42:47.034Z,94.30
2018-07-31T19:45:16.785Z,95.14
2018-07-31T19:47:46.576Z,94.27
2018-07-31T19:50:16.245Z,93.87
2018-07-31T19:52:46.036Z,93.40
2018-07-31T19:55:15.685Z,93.20
2018-07-31T19:57:45.351Z,93.34
2018-07-31T20:00:15.587Z,92.78
2018-07-31T20:02:45.278Z,92.71
2018-07-31T20:05:14.933Z,92.72
2018-07-31T20:07:45.474Z,93.11
2018-07-31T20:10:15.133Z,92.42
2018-07-31T20:12:44.968Z,93.73
2018-07-31T20:15:14.662Z,92.95
2018-07-31T20:17:44.507Z,92.57
2018-07-31T20:20:14.167Z,93.77
2018-07-31T20:22:43.846Z,94.57
2018-07-31T20:25:13.494Z,94.93
2018-07-31T20:27:43.131Z,95.63
2018-07-31T20:30:12.867Z,94.92
2018-07-31T20:32:42.537Z,94.54
2018-07-31T20:35:12.165Z,95.28
2018-07-31T20:37:46.979Z,95.31
2018-07-31T20:40:16.629Z,95.80
2018-07-31T20:42:46.264Z,96.53
2018-07-31T20:45:15.999Z,95.60
2018-07-31T20:47:45.673Z,96.09
2018-07-31T20:50:15.318Z,96.78
2018-07-31T20:52:44.993Z,96.70
2018-07-31T20:55:14.621Z,96.50
2018-07-31T20:57:44.250Z,96.82
2018-07-31T21:00:19.173Z,96.53
2018-07-31T21:02:53.892Z,96.86
2018-07-31T21:05:28.676Z,96.46
2018-07-31T21:08:03.925Z,97.96
2018-07-31T21:10:38.811Z,97.25
2018-07-31T21:13:13.545Z,97.20
2018-07-31T21:15:49.175Z,96.88
2018-07-31T21:18:23.878Z,97.31
2018-07-31T21:20:58.839Z,96.45
2018-07-31T21:23:33.975Z,96.88
2018-07-31T21:26:08.807Z,98.47
2018-07-31T21:28:43.672Z,100.00
2018-07-31T21:31:18.554Z,100.00
2018-07-31T21:33:53.349Z,100.00
2018-07-31T21:36:28.141Z,99.69
2018-07-31T21:39:03.044Z,98.44
2018-07-31T21:41:37.947Z,97.82
2018-07-31T21:44:12.876Z,98.11
2018-07-31T21:46:47.838Z,99.27
2018-07-31T21:49:22.533Z,100.00
2018-07-31T21:51:57.412Z,100.00
2018-07-31T21:54:32.230Z,100.00
2018-07-31T21:57:07.117Z,100.00
2018-07-31T21:59:42.018Z,100.00
2018-07-31T22:02:17.085Z,100.00
2018-07-31T22:04:51.704Z,100.00
2018-07-31T22:07:26.479Z,100.00
2018-07-31T22:10:01.299Z,100.00
2018-07-31T22:12:36.132Z,100.00
2018-07-31T22:15:11.368Z,100.00
2018-07-31T22:17:46.172Z,98.83
2018-07-31T22:20:21.072Z,95.74
2018-07-31T22:22:55.864Z,92.81
2018-07-31T22:25:30.637Z,92.85
2018-07-31T22:28:05.412Z,94.02
2018-07-31T22:30:40.092Z,94.00
2018-07-31T22:33:14.921Z,93.66
2018-07-31T22:35:49.674Z,93.75
2018-07-31T22:38:24.576Z,93.54
2018-07-31T22:40:59.268Z,93.77
2018-07-31T22:43:34.053Z,94.24
2018-07-31T22:46:08.880Z,95.90
2018-07-31T22:48:43.694Z,96.72
2018-07-31T22:51:18.532Z,96.66
2018-07-31T22:53:53.322Z,96.43
2018-07-31T22:56:28.116Z,95.65
2018-07-31T22:59:03.004Z,96.11
2018-07-31T23:01:37.713Z,94.89
2018-07-31T23:04:12.413Z,95.22
2018-07-31T23:06:47.096Z,94.17
2018-07-31T23:09:21.811Z,94.59
2018-07-31T23:11:56.500Z,94.41
2018-07-31T23:14:31.305Z,94.41
2018-07-31T23:17:06.578Z,95.19
2018-07-31T23:19:41.514Z,95.22
2018-07-31T23:22:20.808Z,96.15
2018-07-31T23:24:55.622Z,95.36
2018-07-31T23:27:30.343Z,96.11
2018-07-31T23:30:05.707Z,95.96
2018-07-31T23:32:40.936Z,96.69
2018-07-31T23:35:15.809Z,97.34
2018-07-31T23:37:50.633Z,98.07
2018-07-31T23:40:25.505Z,97.72
2018-07-31T23:43:00.662Z,95.77
2018-07-31T23:45:35.329Z,91.10
2018-07-31T23:48:10.040Z,91.96
2018-07-31T23:50:44.937Z,93.46
2018-07-31T23:53:19.779Z,93.26
2018-07-31T23:55:54.552Z,92.15
2018-07-31T23:58:29.292Z,92.77
